createdAt,value
2023-04-15T00:00:29.014Z,6.93
2023-04-15T00:03:31.659Z,8.35
2023-04-15T00:06:34.350Z,6.67
2023-04-15T00:09:36.861Z,7.53
2023-04-15T00:12:39.530Z,9.10
2023-04-15T00:15:42.760Z,6.57
2023-04-15T00:18:45.925Z,8.13
2023-04-15T00:21:48.678Z,7.60
2023-04-15T00:24:51.388Z,5.57
2023-04-15T00:27:57.288Z,6.03
2023-04-15T00:30:59.752Z,5.47
2023-04-15T00:34:02.616Z,5.32
2023-04-15T00:37:05.052Z,4.13
2023-04-15T00:40:12.325Z,6.72
2023-04-15T00:43:15.005Z,5.45
2023-04-15T00:46:20.697Z,9.27
2023-04-15T00:49:24.110Z,11.10
2023-04-15T00:52:27.196Z,8.40
2023-04-15T00:55:29.617Z,8.82
2023-04-15T00:58:32.654Z,12.10
2023-04-15T01:01:38.567Z,8.90
2023-04-15T01:04:42.173Z,9.18
2023-04-15T01:07:44.593Z,7.77
2023-04-15T01:10:47.286Z,8.10
2023-04-15T01:13:54.241Z,9.93
2023-04-15T01:16:56.660Z,7.70
2023-04-15T01:19:59.108Z,8.65
2023-04-15T01:23:01.620Z,9.38
2023-04-15T01:26:05.104Z,8.27
2023-04-15T01:29:08.431Z,8.18
2023-04-15T01:32:11.172Z,9.43
2023-04-15T01:35:13.805Z,9.18
2023-04-15T01:38:16.360Z,6.97
2023-04-15T01:41:28.170Z,6.40
2023-04-15T01:44:30.734Z,6.80
2023-04-15T01:47:33.702Z,8.63
2023-04-15T01:50:38.140Z,8.27
2023-04-15T01:53:40.700Z,5.85
2023-04-15T01:56:44.353Z,5.50
2023-04-15T01:59:47.479Z,7.05
2023-04-15T02:02:51.347Z,6.05
2023-04-15T02:05:53.907Z,5.38
2023-04-15T02:08:56.827Z,10.53
2023-04-15T02:11:59.556Z,10.05
2023-04-15T02:15:02.137Z,7.90
2023-04-15T02:18:05.799Z,7.00
2023-04-15T02:21:08.281Z,7.50
2023-04-15T02:24:13.324Z,9.70
2023-04-15T02:27:18.377Z,8.73
2023-04-15T02:30:21.409Z,5.30
2023-04-15T02:33:23.993Z,5.55
2023-04-15T02:36:27.128Z,6.90
2023-04-15T02:39:29.501Z,6.93
2023-04-15T02:42:32.036Z,5.65
2023-04-15T02:45:36.633Z,7.43
2023-04-15T02:48:41.011Z,6.10
2023-04-15T02:51:49.488Z,8.50
2023-04-15T02:54:52.096Z,8.50
2023-04-15T02:57:54.562Z,6.53
2023-04-15T03:00:57.004Z,7.13
2023-04-15T03:03:59.581Z,7.03
2023-04-15T03:07:02.118Z,9.52
2023-04-15T03:10:05.009Z,7.83
2023-04-15T03:13:07.460Z,7.82
2023-04-15T03:16:10.608Z,10.32
2023-04-15T03:19:13.208Z,8.63
2023-04-15T03:22:17.933Z,9.43
2023-04-15T03:25:20.736Z,9.05
2023-04-15T03:28:23.332Z,12.00
2023-04-15T03:31:26.615Z,10.90
2023-04-15T03:34:29.129Z,10.93
2023-04-15T03:37:31.554Z,10.20
2023-04-15T03:40:34.226Z,10.63
2023-04-15T03:43:36.687Z,9.27
2023-04-15T03:46:39.123Z,10.73
2023-04-15T03:49:41.513Z,10.73
2023-04-15T03:52:44.938Z,7.97
2023-04-15T03:55:47.795Z,7.82
2023-04-15T03:58:50.261Z,8.02
2023-04-15T04:01:53.046Z,10.48
2023-04-15T04:04:55.474Z,9.90
2023-04-15T04:07:57.867Z,8.02
2023-04-15T04:11:00.279Z,10.63
2023-04-15T04:14:02.645Z,11.70
2023-04-15T04:17:05.354Z,11.13
2023-04-15T04:20:08.441Z,12.30
2023-04-15T04:23:11.609Z,10.18
2023-04-15T04:26:14.042Z,11.73
2023-04-15T04:29:16.394Z,11.07
2023-04-15T04:32:18.800Z,13.65
2023-04-15T04:35:21.947Z,14.95
2023-04-15T04:38:24.460Z,13.90
2023-04-15T04:41:27.307Z,15.80
2023-04-15T04:44:29.780Z,14.27
2023-04-15T04:47:32.159Z,15.15
2023-04-15T04:50:35.460Z,14.20
2023-04-15T04:53:37.856Z,15.70
2023-04-15T04:56:40.390Z,19.05
2023-04-15T04:59:42.847Z,14.68
2023-04-15T05:02:46.163Z,14.35
2023-04-15T05:05:49.418Z,15.50
2023-04-15T05:08:52.074Z,14.98
2023-04-15T05:11:54.511Z,15.13
2023-04-15T05:14:57.123Z,13.43
2023-04-15T05:17:59.544Z,14.07
2023-04-15T05:21:02.655Z,11.07
2023-04-15T05:24:05.539Z,14.98
2023-04-15T05:27:08.594Z,14.20
2023-04-15T05:30:13.393Z,14.05
2023-04-15T05:33:16.438Z,10.75
2023-04-15T05:36:18.869Z,12.55
2023-04-15T05:39:21.466Z,10.30
2023-04-15T05:42:24.028Z,11.13
2023-04-15T05:45:26.474Z,12.15
2023-04-15T05:48:28.966Z,12.90
2023-04-15T05:51:31.463Z,10.93
2023-04-15T05:54:33.929Z,9.95
2023-04-15T05:57:36.632Z,9.35
2023-04-15T06:00:39.411Z,12.50
2023-04-15T06:03:42.029Z,12.82
2023-04-15T06:06:44.814Z,8.27
2023-04-15T06:09:47.307Z,8.98
2023-04-15T06:12:49.769Z,8.87
2023-04-15T06:15:52.180Z,9.85
2023-04-15T06:18:54.721Z,10.35
2023-04-15T06:21:58.808Z,12.97
2023-04-15T06:25:01.272Z,9.75
2023-04-15T06:28:03.875Z,12.52
2023-04-15T06:31:06.439Z,9.02
2023-04-15T06:34:08.766Z,8.77
2023-04-15T06:37:15.881Z,7.57
2023-04-15T06:40:18.489Z,11.82
2023-04-15T06:43:20.961Z,8.37
2023-04-15T06:46:23.559Z,8.35
2023-04-15T06:49:26.752Z,8.40
2023-04-15T06:52:29.178Z,9.50
2023-04-15T06:55:32.345Z,11.10
2023-04-15T06:58:34.710Z,9.60
2023-04-15T07:01:37.163Z,9.10
2023-04-15T07:04:40.394Z,9.98
2023-04-15T07:07:42.955Z,9.13
2023-04-15T07:10:47.227Z,16.10
2023-04-15T07:13:49.634Z,10.87
2023-04-15T07:16:52.170Z,9.18
2023-04-15T07:19:54.658Z,9.13
2023-04-15T07:22:57.549Z,10.50
2023-04-15T07:26:00.159Z,10.52
2023-04-15T07:29:02.758Z,9.45
2023-04-15T07:32:05.944Z,8.85
2023-04-15T07:35:09.761Z,8.43
2023-04-15T07:38:14.810Z,9.50
2023-04-15T07:41:17.585Z,10.95
2023-04-15T07:44:20.035Z,7.63
2023-04-15T07:47:22.419Z,9.93
2023-04-15T07:50:24.818Z,7.90
2023-04-15T07:53:27.301Z,17.37
2023-04-15T07:56:29.824Z,10.52
2023-04-15T07:59:33.541Z,10.90
2023-04-15T08:02:38.196Z,10.20
2023-04-15T08:05:42.614Z,11.15
2023-04-15T08:08:45.117Z,9.88
2023-04-15T08:11:49.224Z,9.70
2023-04-15T08:14:52.260Z,7.97
2023-04-15T08:17:54.761Z,10.98
2023-04-15T08:20:57.166Z,10.10
2023-04-15T08:24:00.276Z,11.87
2023-04-15T08:27:04.760Z,10.38
2023-04-15T08:30:08.600Z,10.95
2023-04-15T08:33:10.996Z,7.93
2023-04-15T08:36:14.161Z,9.18
2023-04-15T08:39:16.725Z,7.28
2023-04-15T08:42:27.781Z,7.60
2023-04-15T08:45:30.743Z,8.37
2023-04-15T08:48:35.169Z,11.25
2023-04-15T08:51:38.774Z,8.88
2023-04-15T08:54:42.164Z,5.13
2023-04-15T08:57:44.948Z,5.50
2023-04-15T09:00:48.761Z,4.65
2023-04-15T09:03:52.903Z,5.28
2023-04-15T09:06:55.313Z,4.93
2023-04-15T09:09:57.677Z,4.75
2023-04-15T09:13:00.772Z,5.22
2023-04-15T09:16:04.302Z,4.07
2023-04-15T09:19:22.632Z,4.38
2023-04-15T09:22:32.223Z,4.18
2023-04-15T09:25:35.156Z,6.10
2023-04-15T09:28:43.575Z,6.05
2023-04-15T09:31:46.480Z,7.53
2023-04-15T09:34:49.141Z,10.18
2023-04-15T09:37:52.605Z,6.35
2023-04-15T09:40:55.295Z,5.95
2023-04-15T09:43:57.753Z,7.70
2023-04-15T09:47:00.810Z,7.27
2023-04-15T09:50:03.584Z,4.97
2023-04-15T09:53:06.310Z,7.50
2023-04-15T09:56:10.569Z,8.33
2023-04-15T09:59:12.950Z,10.43
2023-04-15T10:02:16.531Z,3.53
2023-04-15T10:05:18.976Z,6.95
2023-04-15T10:08:27.928Z,4.20
2023-04-15T10:11:31.895Z,3.90
2023-04-15T10:14:38.827Z,3.97
2023-04-15T10:17:44.329Z,4.30
2023-04-15T10:20:48.433Z,5.43
2023-04-15T10:23:51.524Z,3.88
2023-04-15T10:26:54.469Z,2.63
2023-04-15T10:29:57.490Z,3.22
2023-04-15T10:33:02.027Z,3.80
2023-04-15T10:36:05.042Z,1.70
2023-04-15T10:39:43.140Z,2.88
2023-04-15T10:42:45.781Z,2.08
2023-04-15T10:45:48.743Z,1.92
2023-04-15T10:48:53.580Z,2.83
2023-04-15T10:51:59.819Z,2.55
2023-04-15T10:55:11.263Z,3.25
2023-04-15T10:58:15.107Z,2.37
2023-04-15T11:01:20.939Z,1.98
2023-04-15T11:04:51.772Z,2.25
2023-04-15T11:07:56.063Z,2.15
2023-04-15T11:10:58.573Z,1.90
2023-04-15T11:14:02.861Z,1.48
2023-04-15T11:17:05.538Z,2.28
2023-04-15T11:20:09.115Z,2.73
2023-04-15T11:23:15.325Z,1.85
2023-04-15T11:26:18.168Z,1.83
2023-04-15T11:29:21.310Z,3.87
2023-04-15T11:32:23.779Z,2.30
2023-04-15T11:35:26.720Z,3.90
2023-04-15T11:38:29.340Z,2.65
2023-04-15T11:41:31.821Z,1.95
2023-04-15T11:44:34.444Z,1.90
2023-04-15T11:47:38.120Z,1.52
2023-04-15T11:50:41.228Z,1.10
2023-04-15T11:53:44.684Z,1.00
2023-04-15T11:56:51.990Z,0.85
2023-04-15T11:59:55.468Z,1.53
2023-04-15T12:03:30.094Z,2.42
2023-04-15T12:06:38.907Z,2.60
2023-04-15T12:09:42.534Z,2.80
2023-04-15T12:12:49.829Z,2.53
2023-04-15T12:15:53.269Z,3.05
2023-04-15T12:18:58.950Z,3.15
2023-04-15T12:22:04.198Z,2.73
2023-04-15T12:25:06.905Z,2.50
2023-04-15T12:28:12.891Z,4.38
2023-04-15T12:31:15.605Z,2.27
2023-04-15T12:34:19.985Z,1.80
2023-04-15T12:37:22.501Z,2.20
2023-04-15T12:40:24.835Z,1.42
2023-04-15T12:43:27.704Z,1.35
2023-04-15T12:46:30.178Z,2.17
2023-04-15T12:49:33.554Z,1.80
2023-04-15T12:52:36.003Z,3.83
2023-04-15T12:55:38.531Z,2.17
2023-04-15T12:58:41.148Z,4.88
2023-04-15T13:01:43.681Z,1.70
2023-04-15T13:04:46.101Z,2.55
2023-04-15T13:07:48.466Z,9.70
2023-04-15T13:10:51.097Z,2.60
2023-04-15T13:13:53.496Z,1.40
2023-04-15T13:16:56.300Z,2.88
2023-04-15T13:19:59.486Z,1.50
2023-04-15T13:23:01.957Z,1.07
2023-04-15T13:26:04.896Z,2.22
2023-04-15T13:29:07.392Z,2.22
2023-04-15T13:32:10.023Z,1.83
2023-04-15T13:35:12.512Z,0.73
2023-04-15T13:38:14.877Z,1.65
2023-04-15T13:41:17.285Z,2.45
2023-04-15T13:44:21.920Z,1.15
2023-04-15T13:47:24.727Z,1.13
2023-04-15T13:50:28.193Z,0.80
2023-04-15T13:53:38.089Z,4.37
2023-04-15T13:56:41.876Z,3.78
2023-04-15T13:59:44.522Z,0.63
2023-04-15T14:02:47.139Z,4.20
2023-04-15T14:05:55.827Z,7.05
2023-04-15T14:08:58.293Z,1.73
2023-04-15T14:12:01.440Z,1.95
2023-04-15T14:15:04.220Z,7.47
2023-04-15T14:18:06.986Z,2.05
2023-04-15T14:21:09.353Z,1.27
2023-04-15T14:24:12.013Z,0.50
2023-04-15T14:27:14.495Z,0.40
2023-04-15T14:30:17.493Z,0.90
2023-04-15T14:33:19.916Z,0.77
2023-04-15T14:36:22.886Z,0.57
2023-04-15T14:39:25.333Z,1.50
2023-04-15T14:42:28.145Z,0.88
2023-04-15T14:45:30.687Z,1.30
2023-04-15T14:48:33.308Z,1.20
2023-04-15T14:51:35.856Z,1.48
2023-04-15T14:54:38.459Z,2.23
2023-04-15T14:57:42.137Z,4.55
2023-04-15T15:00:44.816Z,12.40
2023-04-15T15:03:48.482Z,6.53
2023-04-15T15:06:50.999Z,3.70
2023-04-15T15:09:54.769Z,7.63
2023-04-15T15:12:57.405Z,8.45
2023-04-15T15:15:59.943Z,8.93
2023-04-15T15:19:04.047Z,5.72
2023-04-15T15:22:06.815Z,10.77
2023-04-15T15:25:09.487Z,21.03
2023-04-15T15:28:12.057Z,8.32
2023-04-15T15:31:14.719Z,2.10
2023-04-15T15:34:17.486Z,1.33
2023-04-15T15:37:19.834Z,1.55
2023-04-15T15:40:22.421Z,3.40
2023-04-15T15:43:24.898Z,1.83
2023-04-15T15:46:28.337Z,3.60
2023-04-15T15:49:31.617Z,2.90
2023-04-15T15:52:34.017Z,1.50
2023-04-15T15:55:36.512Z,1.20
2023-04-15T15:58:38.920Z,1.40
2023-04-15T16:01:42.889Z,1.15
2023-04-15T16:04:45.551Z,1.93
2023-04-15T16:07:48.118Z,1.70
2023-04-15T16:10:50.474Z,3.22
2023-04-15T16:13:52.896Z,1.65
2023-04-15T16:16:55.348Z,2.55
2023-04-15T16:20:00.514Z,4.70
2023-04-15T16:23:11.805Z,4.38
2023-04-15T16:26:14.256Z,5.20
2023-04-15T16:29:16.847Z,6.38
2023-04-15T16:32:19.487Z,7.13
2023-04-15T16:35:22.181Z,6.93
2023-04-15T16:38:24.633Z,6.68
2023-04-15T16:41:28.515Z,7.93
2023-04-15T16:44:31.086Z,5.32
2023-04-15T16:47:33.698Z,4.78
2023-04-15T16:50:37.192Z,3.53
2023-04-15T16:53:39.598Z,2.95
2023-04-15T16:56:41.970Z,5.70
2023-04-15T16:59:44.471Z,7.53
2023-04-15T17:02:48.090Z,8.18
2023-04-15T17:05:50.714Z,8.23
2023-04-15T17:08:53.941Z,8.90
2023-04-15T17:11:57.659Z,8.07
2023-04-15T17:15:00.126Z,8.90
2023-04-15T17:18:02.574Z,9.88
2023-04-15T17:21:05.597Z,11.50
2023-04-15T17:24:08.269Z,5.38
2023-04-15T17:27:11.454Z,6.43
2023-04-15T17:30:14.084Z,3.35
2023-04-15T17:33:56.390Z,3.55
2023-04-15T17:36:39.449Z,4.33
2023-04-15T17:39:42.157Z,8.38
2023-04-15T17:42:46.259Z,9.75
2023-04-15T17:45:48.782Z,8.73
2023-04-15T17:48:51.689Z,8.52
2023-04-15T17:51:55.485Z,15.63
2023-04-15T17:54:58.151Z,21.80
2023-04-15T17:58:00.865Z,15.03
2023-04-15T18:01:03.555Z,15.77
2023-04-15T18:04:06.583Z,15.63
2023-04-15T18:07:09.578Z,21.73
2023-04-15T18:10:12.136Z,30.10
2023-04-15T18:13:14.828Z,37.92
2023-04-15T18:16:17.402Z,37.88
2023-04-15T18:19:22.553Z,34.28
2023-04-15T18:22:25.469Z,27.83
2023-04-15T18:25:29.289Z,20.25
2023-04-15T18:28:31.983Z,13.53
2023-04-15T18:31:34.767Z,21.98
2023-04-15T18:34:37.759Z,12.70
2023-04-15T18:37:40.545Z,11.27
2023-04-15T18:40:43.231Z,11.63
2023-04-15T18:43:45.932Z,8.80
2023-04-15T18:46:48.969Z,8.63
2023-04-15T18:49:52.202Z,8.32
2023-04-15T18:52:54.932Z,8.35
2023-04-15T18:55:58.110Z,7.15
2023-04-15T18:59:09.400Z,10.23
2023-04-15T19:02:24.051Z,8.00
2023-04-15T19:05:27.319Z,7.15
2023-04-15T19:08:31.111Z,10.77
2023-04-15T19:11:33.776Z,6.45
2023-04-15T19:14:36.436Z,10.07
2023-04-15T19:17:39.071Z,6.63
2023-04-15T19:20:41.864Z,6.57
2023-04-15T19:23:44.625Z,3.65
2023-04-15T19:26:48.766Z,2.10
2023-04-15T19:29:51.535Z,2.00
2023-04-15T19:32:54.312Z,2.65
2023-04-15T19:36:01.648Z,2.28
2023-04-15T19:39:04.575Z,2.50
2023-04-15T19:42:07.667Z,2.03
2023-04-15T19:45:10.900Z,3.63
2023-04-15T19:48:13.618Z,2.50
2023-04-15T19:51:16.441Z,2.67
2023-04-15T19:54:18.838Z,3.05
2023-04-15T19:57:21.695Z,4.22
2023-04-15T20:00:24.124Z,4.37
2023-04-15T20:03:26.956Z,4.45
2023-04-15T20:06:30.291Z,4.78
2023-04-15T20:09:32.852Z,4.80
2023-04-15T20:12:50.993Z,7.95
2023-04-15T20:15:55.160Z,10.15
2023-04-15T20:19:04.146Z,6.03
2023-04-15T20:22:07.073Z,4.43
2023-04-15T20:25:09.794Z,4.03
2023-04-15T20:28:12.683Z,5.70
2023-04-15T20:31:15.431Z,4.93
2023-04-15T20:34:18.016Z,5.15
2023-04-15T20:37:20.563Z,5.35
2023-04-15T20:40:23.274Z,4.87
2023-04-15T20:43:26.154Z,5.97
2023-04-15T20:46:29.893Z,3.97
2023-04-15T20:49:36.377Z,5.05
2023-04-15T20:52:39.394Z,5.38
2023-04-15T20:55:43.595Z,5.03
2023-04-15T20:58:46.228Z,6.93
2023-04-15T21:01:48.922Z,4.77
2023-04-15T21:04:51.434Z,5.35
2023-04-15T21:07:54.263Z,5.03
2023-04-15T21:10:57.506Z,5.13
2023-04-15T21:13:59.882Z,5.60
2023-04-15T21:17:09.973Z,4.80
2023-04-15T21:20:13.443Z,6.45
2023-04-15T21:23:15.982Z,6.00
2023-04-15T21:26:18.434Z,4.78
2023-04-15T21:29:21.054Z,5.00
2023-04-15T21:32:23.530Z,17.67
2023-04-15T21:35:25.881Z,6.43
2023-04-15T21:38:28.282Z,5.38
2023-04-15T21:41:31.210Z,5.80
2023-04-15T21:44:33.560Z,8.25
2023-04-15T21:48:05.831Z,7.65
2023-04-15T21:50:59.600Z,9.07
2023-04-15T21:54:02.254Z,10.90
2023-04-15T21:57:04.659Z,8.20
2023-04-15T22:00:08.583Z,9.18
2023-04-15T22:03:11.094Z,9.93
2023-04-15T22:06:13.871Z,6.18
2023-04-15T22:09:16.672Z,5.00
2023-04-15T22:12:19.368Z,4.93
2023-04-15T22:15:21.790Z,5.05
2023-04-15T22:18:24.267Z,4.32
2023-04-15T22:21:26.869Z,5.20
2023-04-15T22:24:38.191Z,4.93
2023-04-15T22:27:42.851Z,4.38
2023-04-15T22:30:45.210Z,6.10
2023-04-15T22:33:47.564Z,38.90
2023-04-15T22:36:51.596Z,22.23
2023-04-15T22:39:53.973Z,9.95
2023-04-15T22:42:56.702Z,7.30
2023-04-15T22:46:00.744Z,9.07
2023-04-15T22:49:03.395Z,5.00
2023-04-15T22:52:06.126Z,4.28
2023-04-15T22:55:09.157Z,4.40
2023-04-15T22:58:11.539Z,5.18
2023-04-15T23:01:17.549Z,3.55
2023-04-15T23:04:26.634Z,7.70
2023-04-15T23:07:30.408Z,4.85
2023-04-15T23:10:32.823Z,5.18
2023-04-15T23:13:36.119Z,6.60
2023-04-15T23:16:38.881Z,7.15
2023-04-15T23:19:41.409Z,7.57
2023-04-15T23:22:43.902Z,4.80
2023-04-15T23:25:46.535Z,5.38
2023-04-15T23:28:49.018Z,5.30
2023-04-15T23:31:51.476Z,5.75
2023-04-15T23:34:54.381Z,5.30
2023-04-15T23:37:56.872Z,8.40
2023-04-15T23:40:59.323Z,5.28
2023-04-15T23:44:01.793Z,4.07
2023-04-15T23:47:05.003Z,3.90
2023-04-15T23:50:08.357Z,2.80
2023-04-15T23:53:10.789Z,5.72
2023-04-15T23:56:13.241Z,6.90
2023-04-15T23:59:15.806Z,5.93
